sensor_id;sensor_type;location;lat;lon;timestamp;temperature;humidity
3288;DHT22;3260;52.438;13.502;2022-09-28T04:00:24;9.30;1.00
3288;DHT22;3260;52.438;13.502;2022-09-28T04:02:53;9.20;1.00
3288;DHT22;3260;52.438;13.502;2022-09-28T04:05:21;9.10;1.00
3288;DHT22;3260;52.438;13.502;2022-09-28T04:07:49;9.10;1.00
3288;DHT22;3260;52.438;13.502;2022-09-28T04:10:17;9.10;1.00
3288;DHT22;3260;52.438;13.502;2022-09-28T04:12:45;9.10;1.00
3288;DHT22;3260;52.438;13.502;2022-09-28T04:15:13;9.10;1.00
3288;DHT22;3260;52.438;13.502;2022-09-28T04:17:42;9.10;1.00
3288;DHT22;3260;52.438;13.502;2022-09-28T04:20:10;9.10;1.00
3288;DHT22;3260;52.438;13.502;2022-09-28T04:22:38;9.00;1.00
3288;DHT22;3260;52.438;13.502;2022-09-28T04:25:07;9.00;1.00
3288;DHT22;3260;52.438;13.502;2022-09-28T04:27:35;9.00;1.00
3288;DHT22;3260;52.438;13.502;2022-09-28T04:30:21;9.00;1.00
3288;DHT22;3260;52.438;13.502;2022-09-28T04:32:51;9.10;1.00
3288;DHT22;3260;52.438;13.502;2022-09-28T04:35:19;9.10;1.00
3288;DHT22;3260;52.438;13.502;2022-09-28T04:37:47;9.20;1.00
3288;DHT22;3260;52.438;13.502;2022-09-28T04:40:15;9.20;1.00
3288;DHT22;3260;52.438;13.502;2022-09-28T04:42:44;9.30;1.00
3288;DHT22;3260;52.438;13.502;2022-09-28T04:45:19;9.40;1.00
3288;DHT22;3260;52.438;13.502;2022-09-28T04:47:47;9.40;1.00
3288;DHT22;3260;52.438;13.502;2022-09-28T04:50:16;9.50;1.00
3288;DHT22;3260;52.438;13.502;2022-09-28T04:52:45;9.50;1.00
3288;DHT22;3260;52.438;13.502;2022-09-28T04:55:13;9.60;1.00
3288;DHT22;3260;52.438;13.502;2022-09-28T04:57:42;9.60;1.00
3288;DHT22;3260;52.438;13.502;2022-09-28T05:00:11;9.60;1.00
3288;DHT22;3260;52.438;13.502;2022-09-28T05:02:40;9.60;1.00
3288;DHT22;3260;52.438;13.502;2022-09-28T05:05:08;9.60;1.00
3288;DHT22;3260;52.438;13.502;2022-09-28T05:07:37;9.60;1.00
3288;DHT22;3260;52.438;13.502;2022-09-28T05:10:07;9.60;1.00
3288;DHT22;3260;52.438;13.502;2022-09-28T05:12:35;9.70;1.00
3288;DHT22;3260;52.438;13.502;2022-09-28T05:15:04;9.70;1.00
3288;DHT22;3260;52.438;13.502;2022-09-28T05:17:33;9.80;1.00
3288;DHT22;3260;52.438;13.502;2022-09-28T05:20:01;9.80;1.00
3288;DHT22;3260;52.438;13.502;2022-09-28T05:22:29;9.90;1.00
3288;DHT22;3260;52.438;13.502;2022-09-28T05:24:58;9.90;1.00
3288;DHT22;3260;52.438;13.502;2022-09-28T05:27:28;9.90;1.00
3288;DHT22;3260;52.438;13.502;2022-09-28T05:29:56;9.80;1.00
3288;DHT22;3260;52.438;13.502;2022-09-28T05:32:24;9.80;1.00
3288;DHT22;3260;52.438;13.502;2022-09-28T05:34:52;9.80;1.00
3288;DHT22;3260;52.438;13.502;2022-09-28T05:37:21;9.90;1.00
3288;DHT22;3260;52.438;13.502;2022-09-28T05:39:49;9.90;1.00
3288;DHT22;3260;52.438;13.502;2022-09-28T05:42:18;9.90;1.00
3288;DHT22;3260;52.438;13.502;2022-09-28T05:44:46;9.90;1.00
3288;DHT22;3260;52.438;13.502;2022-09-28T05:47:14;9.90;1.00
3288;DHT22;3260;52.438;13.502;2022-09-28T05:49:42;10.00;1.00
3288;DHT22;3260;52.438;13.502;2022-09-28T05:52:10;9.90;1.00
3288;DHT22;3260;52.438;13.502;2022-09-28T05:54:39;10.00;1.00
3288;DHT22;3260;52.438;13.502;2022-09-28T05:57:07;10.00;1.00
3288;DHT22;3260;52.438;13.502;2022-09-28T05:59:36;10.00;1.00
3288;DHT22;3260;52.438;13.502;2022-09-28T06:02:05;10.10;1.00
3288;DHT22;3260;52.438;13.502;2022-09-28T06:04:33;10.00;1.00
3288;DHT22;3260;52.438;13.502;2022-09-28T06:07:01;10.00;1.00
3288;DHT22;3260;52.438;13.502;2022-09-28T06:09:31;10.00;1.00
3288;DHT22;3260;52.438;13.502;2022-09-28T06:11:59;10.10;1.00
3288;DHT22;3260;52.438;13.502;2022-09-28T06:14:28;10.10;1.00
3288;DHT22;3260;52.438;13.502;2022-09-28T06:16:57;10.10;1.00
3288;DHT22;3260;52.438;13.502;2022-09-28T06:19:26;10.20;1.00
3288;DHT22;3260;52.438;13.502;2022-09-28T06:21:54;10.20;1.00
3288;DHT22;3260;52.438;13.502;2022-09-28T06:24:24;10.30;1.00
3288;DHT22;3260;52.438;13.502;2022-09-28T06:26:53;10.30;1.00
3288;DHT22;3260;52.438;13.502;2022-09-28T06:29:21;10.30;1.00
3288;DHT22;3260;52.438;13.502;2022-09-28T06:31:49;10.20;1.00
3288;DHT22;3260;52.438;13.502;2022-09-28T06:34:18;10.30;1.00
3288;DHT22;3260;52.438;13.502;2022-09-28T06:36:47;10.30;1.00
3288;DHT22;3260;52.438;13.502;2022-09-28T06:39:14;10.40;1.00
3288;DHT22;3260;52.438;13.502;2022-09-28T06:41:42;10.40;1.00
3288;DHT22;3260;52.438;13.502;2022-09-28T06:44:10;10.50;1.00
3288;DHT22;3260;52.438;13.502;2022-09-28T06:46:38;10.50;1.00
3288;DHT22;3260;52.438;13.502;2022-09-28T06:49:07;10.50;1.00
3288;DHT22;3260;52.438;13.502;2022-09-28T06:51:37;10.60;1.00
3288;DHT22;3260;52.438;13.502;2022-09-28T06:54:04;10.60;1.00
3288;DHT22;3260;52.438;13.502;2022-09-28T06:56:32;10.70;1.00
3288;DHT22;3260;52.438;13.502;2022-09-28T06:59:00;10.70;1.00
3288;DHT22;3260;52.438;13.502;2022-09-28T07:01:28;10.80;1.00
3288;DHT22;3260;52.438;13.502;2022-09-28T07:03:57;10.90;1.00
3288;DHT22;3260;52.438;13.502;2022-09-28T07:06:27;11.00;1.00
3288;DHT22;3260;52.438;13.502;2022-09-28T07:08:57;11.00;1.00
3288;DHT22;3260;52.438;13.502;2022-09-28T07:11:48;11.10;1.00
3288;DHT22;3260;52.438;13.502;2022-09-28T07:14:16;11.20;1.00
3288;DHT22;3260;52.438;13.502;2022-09-28T07:17:05;11.30;1.00
3288;DHT22;3260;52.438;13.502;2022-09-28T07:19:40;11.40;1.00
3288;DHT22;3260;52.438;13.502;2022-09-28T07:22:08;11.40;1.00
3288;DHT22;3260;52.438;13.502;2022-09-28T07:24:46;11.60;1.00
3288;DHT22;3260;52.438;13.502;2022-09-28T07:27:15;11.80;1.00
3288;DHT22;3260;52.438;13.502;2022-09-28T07:29:43;11.90;1.00
3288;DHT22;3260;52.438;13.502;2022-09-28T07:32:11;12.10;1.00
3288;DHT22;3260;52.438;13.502;2022-09-28T07:34:39;12.20;1.00
3288;DHT22;3260;52.438;13.502;2022-09-28T07:37:09;12.30;1.00
3288;DHT22;3260;52.438;13.502;2022-09-28T07:39:39;12.40;1.00
3288;DHT22;3260;52.438;13.502;2022-09-28T07:42:26;12.50;1.00
3288;DHT22;3260;52.438;13.502;2022-09-28T07:44:56;12.60;1.00
3288;DHT22;3260;52.438;13.502;2022-09-28T07:47:25;12.80;1.00
3288;DHT22;3260;52.438;13.502;2022-09-28T07:50:00;12.80;1.00
3288;DHT22;3260;52.438;13.502;2022-09-28T07:52:28;13.00;1.00
3288;DHT22;3260;52.438;13.502;2022-09-28T07:54:57;13.20;1.00
3288;DHT22;3260;52.438;13.502;2022-09-28T07:57:33;13.20;1.00
3288;DHT22;3260;52.438;13.502;2022-09-28T08:00:03;13.40;1.00
3288;DHT22;3260;52.438;13.502;2022-09-28T08:02:33;13.40;1.00
3288;DHT22;3260;52.438;13.502;2022-09-28T08:05:02;13.60;1.00
3288;DHT22;3260;52.438;13.502;2022-09-28T08:07:30;13.70;1.00
3288;DHT22;3260;52.438;13.502;2022-09-28T08:10:00;13.90;1.00
3288;DHT22;3260;52.438;13.502;2022-09-28T08:12:28;14.00;1.00
3288;DHT22;3260;52.438;13.502;2022-09-28T08:14:57;14.20;1.00
3288;DHT22;3260;52.438;13.502;2022-09-28T08:17:26;14.40;1.00
3288;DHT22;3260;52.438;13.502;2022-09-28T08:19:54;14.50;1.00
3288;DHT22;3260;52.438;13.502;2022-09-28T08:22:40;14.60;1.00
3288;DHT22;3260;52.438;13.502;2022-09-28T08:25:08;14.80;1.00
3288;DHT22;3260;52.438;13.502;2022-09-28T08:27:36;14.90;1.00
3288;DHT22;3260;52.438;13.502;2022-09-28T08:30:07;15.10;1.00
3288;DHT22;3260;52.438;13.502;2022-09-28T08:32:36;15.30;1.00
3288;DHT22;3260;52.438;13.502;2022-09-28T08:35:04;15.30;1.00
3288;DHT22;3260;52.438;13.502;2022-09-28T08:37:33;15.40;1.00
3288;DHT22;3260;52.438;13.502;2022-09-28T08:40:01;15.60;1.00
3288;DHT22;3260;52.438;13.502;2022-09-28T08:42:32;15.60;1.00
3288;DHT22;3260;52.438;13.502;2022-09-28T08:45:10;15.60;1.00
3288;DHT22;3260;52.438;13.502;2022-09-28T08:47:48;15.70;1.00
3288;DHT22;3260;52.438;13.502;2022-09-28T08:50:46;15.60;1.00
3288;DHT22;3260;52.438;13.502;2022-09-28T08:53:29;15.30;1.00
3288;DHT22;3260;52.438;13.502;2022-09-28T08:56:03;15.40;1.00
3288;DHT22;3260;52.438;13.502;2022-09-28T08:58:40;15.40;1.00
3288;DHT22;3260;52.438;13.502;2022-09-28T09:01:14;15.20;1.00
3288;DHT22;3260;52.438;13.502;2022-09-28T09:03:46;15.10;1.00
3288;DHT22;3260;52.438;13.502;2022-09-28T09:06:20;15.10;1.00
3288;DHT22;3260;52.438;13.502;2022-09-28T09:08:59;15.00;1.00
3288;DHT22;3260;52.438;13.502;2022-09-28T09:11:45;14.90;1.00
3288;DHT22;3260;52.438;13.502;2022-09-28T09:14:51;14.90;1.00
3288;DHT22;3260;52.438;13.502;2022-09-28T09:17:41;14.70;1.00
3288;DHT22;3260;52.438;13.502;2022-09-28T09:20:30;14.70;1.00
3288;DHT22;3260;52.438;13.502;2022-09-28T09:23:17;14.80;1.00
3288;DHT22;3260;52.438;13.502;2022-09-28T09:25:48;14.90;1.00
3288;DHT22;3260;52.438;13.502;2022-09-28T09:29:01;15.00;1.00
3288;DHT22;3260;52.438;13.502;2022-09-28T09:31:54;15.10;1.00
3288;DHT22;3260;52.438;13.502;2022-09-28T09:34:57;15.10;1.00
3288;DHT22;3260;52.438;13.502;2022-09-28T09:37:49;15.20;1.00
3288;DHT22;3260;52.438;13.502;2022-09-28T09:40:46;15.30;1.00
3288;DHT22;3260;52.438;13.502;2022-09-28T09:46:39;15.80;1.00
3288;DHT22;3260;52.438;13.502;2022-09-28T09:49:18;16.10;1.00
3288;DHT22;3260;52.438;13.502;2022-09-28T09:51:52;16.30;1.00
3288;DHT22;3260;52.438;13.502;2022-09-28T09:54:30;16.40;1.00
3288;DHT22;3260;52.438;13.502;2022-09-28T09:57:06;16.50;1.00
3288;DHT22;3260;52.438;13.502;2022-09-28T09:59:41;16.50;1.00
3288;DHT22;3260;52.438;13.502;2022-09-28T10:02:19;16.50;1.00
3288;DHT22;3260;52.438;13.502;2022-09-28T10:04:53;16.50;1.00
3288;DHT22;3260;52.438;13.502;2022-09-28T10:07:28;16.30;1.00
3288;DHT22;3260;52.438;13.502;2022-09-28T10:10:02;16.10;1.00
3288;DHT22;3260;52.438;13.502;2022-09-28T10:15:15;16.00;1.00
3288;DHT22;3260;52.438;13.502;2022-09-28T10:17:48;16.30;1.00
3288;DHT22;3260;52.438;13.502;2022-09-28T10:20:17;16.80;1.00
3288;DHT22;3260;52.438;13.502;2022-09-28T10:22:46;17.10;1.00
3288;DHT22;3260;52.438;13.502;2022-09-28T10:25:17;17.50;1.00
3288;DHT22;3260;52.438;13.502;2022-09-28T10:27:48;18.10;1.00
3288;DHT22;3260;52.438;13.502;2022-09-28T10:30:20;18.50;1.00
3288;DHT22;3260;52.438;13.502;2022-09-28T10:32:51;18.80;1.00
3288;DHT22;3260;52.438;13.502;2022-09-28T10:35:26;18.60;1.00
3288;DHT22;3260;52.438;13.502;2022-09-28T10:38:00;18.00;1.00
3288;DHT22;3260;52.438;13.502;2022-09-28T10:40:38;17.70;1.00
3288;DHT22;3260;52.438;13.502;2022-09-28T10:43:17;17.60;1.00
3288;DHT22;3260;52.438;13.502;2022-09-28T10:45:59;17.30;1.00
3288;DHT22;3260;52.438;13.502;2022-09-28T10:48:32;16.90;1.00
3288;DHT22;3260;52.438;13.502;2022-09-28T10:51:19;16.40;1.00
3288;DHT22;3260;52.438;13.502;2022-09-28T10:53:59;16.20;1.00
3288;DHT22;3260;52.438;13.502;2022-09-28T10:56:29;15.90;1.00
3288;DHT22;3260;52.438;13.502;2022-09-28T10:59:22;15.60;1.00
3288;DHT22;3260;52.438;13.502;2022-09-28T11:02:18;15.40;1.00
3288;DHT22;3260;52.438;13.502;2022-09-28T11:04:52;15.30;1.00
3288;DHT22;3260;52.438;13.502;2022-09-28T11:07:24;15.00;1.00
3288;DHT22;3260;52.438;13.502;2022-09-28T11:09:55;14.90;1.00
3288;DHT22;3260;52.438;13.502;2022-09-28T11:12:27;14.90;1.00
3288;DHT22;3260;52.438;13.502;2022-09-28T11:15:01;14.80;1.00
3288;DHT22;3260;52.438;13.502;2022-09-28T11:17:33;14.90;1.00
3288;DHT22;3260;52.438;13.502;2022-09-28T11:20:28;14.80;1.00
3288;DHT22;3260;52.438;13.502;2022-09-28T11:23:00;15.00;1.00
3288;DHT22;3260;52.438;13.502;2022-09-28T11:25:55;14.90;1.00
3288;DHT22;3260;52.438;13.502;2022-09-28T11:28:30;14.70;1.00
3288;DHT22;3260;52.438;13.502;2022-09-28T11:31:00;14.70;1.00
3288;DHT22;3260;52.438;13.502;2022-09-28T11:33:32;14.60;1.00
3288;DHT22;3260;52.438;13.502;2022-09-28T11:36:18;14.60;1.00
3288;DHT22;3260;52.438;13.502;2022-09-28T11:39:03;14.60;1.00
3288;DHT22;3260;52.438;13.502;2022-09-28T11:41:58;14.40;1.00
3288;DHT22;3260;52.438;13.502;2022-09-28T11:44:41;14.30;1.00
3288;DHT22;3260;52.438;13.502;2022-09-28T11:47:42;14.30;1.00
3288;DHT22;3260;52.438;13.502;2022-09-28T11:50:19;14.10;1.00
3288;DHT22;3260;52.438;13.502;2022-09-28T11:52:58;14.10;1.00
3288;DHT22;3260;52.438;13.502;2022-09-28T11:55:39;14.20;1.00
3288;DHT22;3260;52.438;13.502;2022-09-28T11:58:21;14.20;1.00
3288;DHT22;3260;52.438;13.502;2022-09-28T12:00:56;14.20;1.00
3288;DHT22;3260;52.438;13.502;2022-09-28T12:03:34;14.50;1.00
3288;DHT22;3260;52.438;13.502;2022-09-28T12:06:12;14.50;1.00
3288;DHT22;3260;52.438;13.502;2022-09-28T12:08:45;14.60;1.00
3288;DHT22;3260;52.438;13.502;2022-09-28T12:11:20;14.70;1.00
3288;DHT22;3260;52.438;13.502;2022-09-28T12:13:57;14.50;1.00
3288;DHT22;3260;52.438;13.502;2022-09-28T12:16:33;14.40;1.00
3288;DHT22;3260;52.438;13.502;2022-09-28T12:19:29;14.20;1.00
3288;DHT22;3260;52.438;13.502;2022-09-28T12:22:03;14.20;1.00
3288;DHT22;3260;52.438;13.502;2022-09-28T12:24:41;14.30;1.00
3288;DHT22;3260;52.438;13.502;2022-09-28T12:27:16;14.10;1.00
3288;DHT22;3260;52.438;13.502;2022-09-28T12:29:52;14.10;1.00
3288;DHT22;3260;52.438;13.502;2022-09-28T12:32:30;14.10;1.00
3288;DHT22;3260;52.438;13.502;2022-09-28T12:35:09;14.00;1.00
3288;DHT22;3260;52.438;13.502;2022-09-28T12:38:01;13.80;1.00
3288;DHT22;3260;52.438;13.502;2022-09-28T12:40:50;13.80;1.00
3288;DHT22;3260;52.438;13.502;2022-09-28T12:43:34;13.80;1.00
3288;DHT22;3260;52.438;13.502;2022-09-28T12:46:29;13.70;1.00
3288;DHT22;3260;52.438;13.502;2022-09-28T12:49:33;13.50;1.00
3288;DHT22;3260;52.438;13.502;2022-09-28T12:52:38;13.40;1.00
3288;DHT22;3260;52.438;13.502;2022-09-28T12:55:28;13.30;1.00
3288;DHT22;3260;52.438;13.502;2022-09-28T12:58:21;13.10;1.00
3288;DHT22;3260;52.438;13.502;2022-09-28T13:01:04;12.90;1.00
3288;DHT22;3260;52.438;13.502;2022-09-28T13:04:06;12.90;1.00
3288;DHT22;3260;52.438;13.502;2022-09-28T13:06:58;12.90;1.00
3288;DHT22;3260;52.438;13.502;2022-09-28T13:09:40;12.90;1.00
3288;DHT22;3260;52.438;13.502;2022-09-28T13:12:25;12.90;1.00
3288;DHT22;3260;52.438;13.502;2022-09-28T13:15:11;13.00;1.00
3288;DHT22;3260;52.438;13.502;2022-09-28T13:17:59;13.00;1.00
3288;DHT22;3260;52.438;13.502;2022-09-28T13:20:44;13.20;1.00
3288;DHT22;3260;52.438;13.502;2022-09-28T13:23:29;13.40;1.00
3288;DHT22;3260;52.438;13.502;2022-09-28T13:26:10;13.50;1.00
3288;DHT22;3260;52.438;13.502;2022-09-28T13:28:44;13.80;1.00
3288;DHT22;3260;52.438;13.502;2022-09-28T13:31:17;14.00;1.00
3288;DHT22;3260;52.438;13.502;2022-09-28T13:33:49;14.20;1.00
3288;DHT22;3260;52.438;13.502;2022-09-28T13:36:36;14.60;1.00
3288;DHT22;3260;52.438;13.502;2022-09-28T13:39:34;14.90;1.00
3288;DHT22;3260;52.438;13.502;2022-09-28T13:42:06;15.30;1.00
3288;DHT22;3260;52.438;13.502;2022-09-28T13:48:03;16.50;1.00
3288;DHT22;3260;52.438;13.502;2022-09-28T13:50:55;17.20;1.00
3288;DHT22;3260;52.438;13.502;2022-09-28T13:56:53;18.60;1.00
3288;DHT22;3260;52.438;13.502;2022-09-28T13:59:31;20.00;1.00
3288;DHT22;3260;52.438;13.502;2022-09-28T14:02:24;21.00;1.00
3288;DHT22;3260;52.438;13.502;2022-09-28T14:05:01;22.30;1.00
3288;DHT22;3260;52.438;13.502;2022-09-28T14:07:54;22.90;1.00
3288;DHT22;3260;52.438;13.502;2022-09-28T14:10:47;24.10;1.00
3288;DHT22;3260;52.438;13.502;2022-09-28T14:13:56;25.70;1.00
3288;DHT22;3260;52.438;13.502;2022-09-28T14:16:26;27.40;1.00
3288;DHT22;3260;52.438;13.502;2022-09-28T14:19:01;27.50;1.00
3288;DHT22;3260;52.438;13.502;2022-09-28T14:21:51;26.90;1.00
3288;DHT22;3260;52.438;13.502;2022-09-28T14:24:52;26.40;1.00
3288;DHT22;3260;52.438;13.502;2022-09-28T14:28:00;25.70;1.00
3288;DHT22;3260;52.438;13.502;2022-09-28T14:30:46;25.80;1.00
3288;DHT22;3260;52.438;13.502;2022-09-28T14:33:24;26.60;1.00
3288;DHT22;3260;52.438;13.502;2022-09-28T14:35:56;26.80;1.00
3288;DHT22;3260;52.438;13.502;2022-09-28T14:38:29;26.80;1.00
3288;DHT22;3260;52.438;13.502;2022-09-28T14:41:27;26.70;1.00
3288;DHT22;3260;52.438;13.502;2022-09-28T14:44:05;26.60;1.00
3288;DHT22;3260;52.438;13.502;2022-09-28T14:46:39;26.00;1.00
3288;DHT22;3260;52.438;13.502;2022-09-28T14:52:38;26.20;1.00
3288;DHT22;3260;52.438;13.502;2022-09-28T14:55:14;25.40;1.00
3288;DHT22;3260;52.438;13.502;2022-09-28T14:57:51;24.90;1.00
3288;DHT22;3260;52.438;13.502;2022-09-28T15:00:26;24.50;1.00
3288;DHT22;3260;52.438;13.502;2022-09-28T15:03:01;24.10;1.00
3288;DHT22;3260;52.438;13.502;2022-09-28T15:05:41;23.40;1.00
3288;DHT22;3260;52.438;13.502;2022-09-28T15:08:12;22.30;1.00
3288;DHT22;3260;52.438;13.502;2022-09-28T15:10:45;21.00;1.00
3288;DHT22;3260;52.438;13.502;2022-09-28T15:13:19;20.00;1.00
3288;DHT22;3260;52.438;13.502;2022-09-28T15:15:54;19.40;1.00
3288;DHT22;3260;52.438;13.502;2022-09-28T15:18:46;19.10;1.00
3288;DHT22;3260;52.438;13.502;2022-09-28T15:21:31;19.50;1.00
3288;DHT22;3260;52.438;13.502;2022-09-28T15:24:02;20.10;1.00
3288;DHT22;3260;52.438;13.502;2022-09-28T15:26:50;19.70;1.00
3288;DHT22;3260;52.438;13.502;2022-09-28T15:29:20;19.30;1.00
3288;DHT22;3260;52.438;13.502;2022-09-28T15:31:50;19.10;1.00
3288;DHT22;3260;52.438;13.502;2022-09-28T15:34:28;18.90;1.00
3288;DHT22;3260;52.438;13.502;2022-09-28T15:37:17;18.50;1.00
3288;DHT22;3260;52.438;13.502;2022-09-28T15:39:49;18.00;1.00
3288;DHT22;3260;52.438;13.502;2022-09-28T15:42:19;17.50;1.00
3288;DHT22;3260;52.438;13.502;2022-09-28T15:45:02;17.20;1.00
3288;DHT22;3260;52.438;13.502;2022-09-28T15:47:49;16.80;1.00
3288;DHT22;3260;52.438;13.502;2022-09-28T15:50:21;16.50;1.00
3288;DHT22;3260;52.438;13.502;2022-09-28T15:52:55;16.20;1.00
3288;DHT22;3260;52.438;13.502;2022-09-28T15:55:29;15.90;1.00
3288;DHT22;3260;52.438;13.502;2022-09-28T15:58:13;15.70;1.00
3288;DHT22;3260;52.438;13.502;2022-09-28T16:00:43;15.60;1.00
3288;DHT22;3260;52.438;13.502;2022-09-28T16:03:22;15.20;1.00
3288;DHT22;3260;52.438;13.502;2022-09-28T16:06:05;14.90;1.00
3288;DHT22;3260;52.438;13.502;2022-09-28T16:08:39;14.50;1.00
3288;DHT22;3260;52.438;13.502;2022-09-28T16:11:13;14.20;1.00
3288;DHT22;3260;52.438;13.502;2022-09-28T16:13:55;13.80;1.00
3288;DHT22;3260;52.438;13.502;2022-09-28T16:16:29;13.50;1.00
3288;DHT22;3260;52.438;13.502;2022-09-28T16:19:02;13.20;1.00
3288;DHT22;3260;52.438;13.502;2022-09-28T16:21:43;13.00;1.00
3288;DHT22;3260;52.438;13.502;2022-09-28T16:24:19;12.80;1.00
3288;DHT22;3260;52.438;13.502;2022-09-28T16:26:55;12.80;1.00
3288;DHT22;3260;52.438;13.502;2022-09-28T16:29:31;12.60;1.00
3288;DHT22;3260;52.438;13.502;2022-09-28T16:32:34;12.40;1.00
3288;DHT22;3260;52.438;13.502;2022-09-28T16:35:17;12.10;1.00
3288;DHT22;3260;52.438;13.502;2022-09-28T16:38:09;12.00;1.00
3288;DHT22;3260;52.438;13.502;2022-09-28T16:40:40;11.90;1.00
3288;DHT22;3260;52.438;13.502;2022-09-28T16:43:18;11.70;1.00
3288;DHT22;3260;52.438;13.502;2022-09-28T16:45:48;11.60;1.00
3288;DHT22;3260;52.438;13.502;2022-09-28T16:48:26;11.50;1.00
3288;DHT22;3260;52.438;13.502;2022-09-28T16:50:57;11.50;1.00
3288;DHT22;3260;52.438;13.502;2022-09-28T16:53:25;11.50;1.00
3288;DHT22;3260;52.438;13.502;2022-09-28T16:56:11;11.50;1.00
3288;DHT22;3260;52.438;13.502;2022-09-28T16:58:40;11.40;1.00
3288;DHT22;3260;52.438;13.502;2022-09-28T17:01:10;11.30;1.00
3288;DHT22;3260;52.438;13.502;2022-09-28T17:03:39;11.30;1.00
3288;DHT22;3260;52.438;13.502;2022-09-28T17:06:14;11.30;1.00
3288;DHT22;3260;52.438;13.502;2022-09-28T17:08:44;11.30;1.00
3288;DHT22;3260;52.438;13.502;2022-09-28T17:11:13;11.30;1.00
3288;DHT22;3260;52.438;13.502;2022-09-28T17:13:49;11.20;1.00
3288;DHT22;3260;52.438;13.502;2022-09-28T17:16:25;11.20;1.00
3288;DHT22;3260;52.438;13.502;2022-09-28T17:19:18;11.20;1.00
3288;DHT22;3260;52.438;13.502;2022-09-28T17:21:50;11.20;1.00
3288;DHT22;3260;52.438;13.502;2022-09-28T17:24:19;11.20;1.00
3288;DHT22;3260;52.438;13.502;2022-09-28T17:26:49;11.20;1.00
3288;DHT22;3260;52.438;13.502;2022-09-28T17:29:18;11.20;1.00
3288;DHT22;3260;52.438;13.502;2022-09-28T17:31:47;11.20;1.00
3288;DHT22;3260;52.438;13.502;2022-09-28T17:34:15;11.20;1.00
3288;DHT22;3260;52.438;13.502;2022-09-28T17:36:43;11.20;1.00
3288;DHT22;3260;52.438;13.502;2022-09-28T17:39:14;11.10;1.00
3288;DHT22;3260;52.438;13.502;2022-09-28T17:41:45;11.10;1.00
3288;DHT22;3260;52.438;13.502;2022-09-28T17:44:13;11.00;1.00
3288;DHT22;3260;52.438;13.502;2022-09-28T17:46:43;11.00;1.00
3288;DHT22;3260;52.438;13.502;2022-09-28T17:49:14;11.00;1.00
3288;DHT22;3260;52.438;13.502;2022-09-28T17:51:43;10.90;1.00
3288;DHT22;3260;52.438;13.502;2022-09-28T17:54:12;10.90;1.00
3288;DHT22;3260;52.438;13.502;2022-09-28T17:56:42;10.90;1.00
3288;DHT22;3260;52.438;13.502;2022-09-28T17:59:13;10.80;1.00
3288;DHT22;3260;52.438;13.502;2022-09-28T18:01:44;10.80;1.00
3288;DHT22;3260;52.438;13.502;2022-09-28T18:04:14;10.80;1.00
3288;DHT22;3260;52.438;13.502;2022-09-28T18:07:02;10.80;1.00
3288;DHT22;3260;52.438;13.502;2022-09-28T18:09:32;10.70;1.00
3288;DHT22;3260;52.438;13.502;2022-09-28T18:12:03;10.70;1.00
3288;DHT22;3260;52.438;13.502;2022-09-28T18:14:32;10.70;1.00
3288;DHT22;3260;52.438;13.502;2022-09-28T18:17:01;10.70;1.00
3288;DHT22;3260;52.438;13.502;2022-09-28T18:19:29;10.70;1.00
3288;DHT22;3260;52.438;13.502;2022-09-28T18:21:58;10.80;1.00
3288;DHT22;3260;52.438;13.502;2022-09-28T18:24:27;10.70;1.00
3288;DHT22;3260;52.438;13.502;2022-09-28T18:26:56;10.80;1.00
3288;DHT22;3260;52.438;13.502;2022-09-28T18:29:24;10.80;1.00
3288;DHT22;3260;52.438;13.502;2022-09-28T18:31:58;10.80;1.00
3288;DHT22;3260;52.438;13.502;2022-09-28T18:34:26;10.80;1.00
3288;DHT22;3260;52.438;13.502;2022-09-28T18:36:54;10.80;1.00
3288;DHT22;3260;52.438;13.502;2022-09-28T18:39:22;10.80;1.00
3288;DHT22;3260;52.438;13.502;2022-09-28T18:41:52;10.80;1.00
3288;DHT22;3260;52.438;13.502;2022-09-28T18:44:22;10.80;1.00
3288;DHT22;3260;52.438;13.502;2022-09-28T18:46:50;10.80;1.00
3288;DHT22;3260;52.438;13.502;2022-09-28T18:49:19;10.70;1.00
3288;DHT22;3260;52.438;13.502;2022-09-28T18:51:47;10.70;1.00
3288;DHT22;3260;52.438;13.502;2022-09-28T18:54:15;10.70;1.00
3288;DHT22;3260;52.438;13.502;2022-09-28T18:56:44;10.70;1.00
3288;DHT22;3260;52.438;13.502;2022-09-28T18:59:12;10.70;1.00
3288;DHT22;3260;52.438;13.502;2022-09-28T19:01:41;10.70;1.00
3288;DHT22;3260;52.438;13.502;2022-09-28T19:04:10;10.70;1.00
3288;DHT22;3260;52.438;13.502;2022-09-28T19:06:40;10.70;1.00
3288;DHT22;3260;52.438;13.502;2022-09-28T19:09:10;10.70;1.00
3288;DHT22;3260;52.438;13.502;2022-09-28T19:11:38;10.70;1.00
3288;DHT22;3260;52.438;13.502;2022-09-28T19:14:07;10.70;1.00
3288;DHT22;3260;52.438;13.502;2022-09-28T19:16:42;10.60;1.00
3288;DHT22;3260;52.438;13.502;2022-09-28T19:19:15;10.60;1.00
3288;DHT22;3260;52.438;13.502;2022-09-28T19:21:46;10.60;1.00
3288;DHT22;3260;52.438;13.502;2022-09-28T19:24:16;10.50;1.00
3288;DHT22;3260;52.438;13.502;2022-09-28T19:26:45;10.50;1.00
3288;DHT22;3260;52.438;13.502;2022-09-28T19:29:14;10.50;1.00
3288;DHT22;3260;52.438;13.502;2022-09-28T19:31:44;10.40;1.00
3288;DHT22;3260;52.438;13.502;2022-09-28T19:34:12;10.40;1.00
3288;DHT22;3260;52.438;13.502;2022-09-28T19:36:41;10.30;1.00
3288;DHT22;3260;52.438;13.502;2022-09-28T19:39:12;10.30;1.00
3288;DHT22;3260;52.438;13.502;2022-09-28T19:41:43;10.30;1.00
3288;DHT22;3260;52.438;13.502;2022-09-28T19:44:16;10.30;1.00
3288;DHT22;3260;52.438;13.502;2022-09-28T19:46:52;10.20;1.00
3288;DHT22;3260;52.438;13.502;2022-09-28T19:49:22;10.10;1.00
3288;DHT22;3260;52.438;13.502;2022-09-28T19:51:53;10.10;1.00
3288;DHT22;3260;52.438;13.502;2022-09-28T19:54:38;10.10;1.00
3288;DHT22;3260;52.438;13.502;2022-09-28T19:57:06;10.00;1.00
3288;DHT22;3260;52.438;13.502;2022-09-28T19:59:35;9.90;1.00
3288;DHT22;3260;52.438;13.502;2022-09-28T20:02:06;9.90;1.00
3288;DHT22;3260;52.438;13.502;2022-09-28T20:04:34;9.80;1.00
3288;DHT22;3260;52.438;13.502;2022-09-28T20:07:02;9.80;1.00
3288;DHT22;3260;52.438;13.502;2022-09-28T20:09:31;9.70;1.00
3288;DHT22;3260;52.438;13.502;2022-09-28T20:12:00;9.70;1.00
3288;DHT22;3260;52.438;13.502;2022-09-28T20:14:28;9.60;1.00
3288;DHT22;3260;52.438;13.502;2022-09-28T20:17:05;9.50;1.00
3288;DHT22;3260;52.438;13.502;2022-09-28T20:19:33;9.50;1.00
3288;DHT22;3260;52.438;13.502;2022-09-28T20:22:01;9.40;1.00
3288;DHT22;3260;52.438;13.502;2022-09-28T20:24:30;9.40;1.00
3288;DHT22;3260;52.438;13.502;2022-09-28T20:26:59;9.30;1.00
3288;DHT22;3260;52.438;13.502;2022-09-28T20:29:28;9.30;1.00
3288;DHT22;3260;52.438;13.502;2022-09-28T20:31:59;9.30;1.00
3288;DHT22;3260;52.438;13.502;2022-09-28T20:34:28;9.30;1.00
3288;DHT22;3260;52.438;13.502;2022-09-28T20:36:56;9.30;1.00
3288;DHT22;3260;52.438;13.502;2022-09-28T20:39:24;9.30;1.00
3288;DHT22;3260;52.438;13.502;2022-09-28T20:41:52;9.30;1.00
3288;DHT22;3260;52.438;13.502;2022-09-28T20:44:21;9.30;1.00
3288;DHT22;3260;52.438;13.502;2022-09-28T20:46:49;9.30;1.00
3288;DHT22;3260;52.438;13.502;2022-09-28T20:49:18;9.40;1.00
3288;DHT22;3260;52.438;13.502;2022-09-28T20:51:47;9.40;1.00
3288;DHT22;3260;52.438;13.502;2022-09-28T20:54:15;9.40;1.00
3288;DHT22;3260;52.438;13.502;2022-09-28T20:56:44;9.40;1.00
3288;DHT22;3260;52.438;13.502;2022-09-28T20:59:13;9.40;1.00
